sensor_id;sensor_type;location;lat;lon;timestamp;pressure;altitude;pressure_sealevel;temperature;humidity
66681;BME280;53575;51.366;12.350;2022-12-29T00:01:28;99497.66;;;8.16;77.64
66681;BME280;53575;51.366;12.350;2022-12-29T00:03:53;99492.47;;;8.16;77.35
66681;BME280;53575;51.366;12.350;2022-12-29T00:06:19;99495.06;;;8.16;77.72
66681;BME280;53575;51.366;12.350;2022-12-29T00:08:44;99493.31;;;8.18;77.22
66681;BME280;53575;51.366;12.350;2022-12-29T00:11:12;99491.56;;;8.21;77.09
66681;BME280;53575;51.366;12.350;2022-12-29T00:13:38;99488.91;;;8.23;76.85
66681;BME280;53575;51.366;12.350;2022-12-29T00:16:22;99500.19;;;8.25;77.10
66681;BME280;53575;51.366;12.350;2022-12-29T00:18:47;99503.63;;;8.28;77.08
66681;BME280;53575;51.366;12.350;2022-12-29T00:21:18;99494.03;;;8.34;76.37
66681;BME280;53575;51.366;12.350;2022-12-29T00:24:03;99487.97;;;8.31;76.22
66681;BME280;53575;51.366;12.350;2022-12-29T00:29:48;99486.16;;;8.41;76.08
66681;BME280;53575;51.366;12.350;2022-12-29T00:32:32;99486.16;;;8.41;76.36
66681;BME280;53575;51.366;12.350;2022-12-29T00:37:47;99471.28;;;8.52;75.57
66681;BME280;53575;51.366;12.350;2022-12-29T00:40:32;99468.66;;;8.54;75.71
66681;BME280;53575;51.366;12.350;2022-12-29T00:43:16;99472.13;;;8.56;75.77
66681;BME280;53575;51.366;12.350;2022-12-29T00:46:00;99472.00;;;8.65;74.95
66681;BME280;53575;51.366;12.350;2022-12-29T00:48:26;99466.84;;;8.61;75.27
66681;BME280;53575;51.366;12.350;2022-12-29T00:51:10;99469.44;;;8.62;75.70
66681;BME280;53575;51.366;12.350;2022-12-29T00:53:35;99461.50;;;8.74;75.42
66681;BME280;53575;51.366;12.350;2022-12-29T00:56:01;99461.50;;;8.74;75.04
66681;BME280;53575;51.366;12.350;2022-12-29T00:58:28;99459.69;;;8.79;75.10
66681;BME280;53575;51.366;12.350;2022-12-29T01:01:04;99468.28;;;8.85;74.90
66681;BME280;53575;51.366;12.350;2022-12-29T01:03:30;99463.06;;;8.86;75.14
66681;BME280;53575;51.366;12.350;2022-12-29T01:05:55;99461.22;;;8.93;74.89
66681;BME280;53575;51.366;12.350;2022-12-29T01:08:21;99461.28;;;8.90;75.05
66681;BME280;53575;51.366;12.350;2022-12-29T01:10:46;99449.97;;;8.91;75.08
66681;BME280;53575;51.366;12.350;2022-12-29T01:13:11;99474.22;;;8.96;74.85
66681;BME280;53575;51.366;12.350;2022-12-29T01:15:37;99469.88;;;8.98;74.85
66681;BME280;53575;51.366;12.350;2022-12-29T01:18:02;99464.59;;;9.02;74.71
66681;BME280;53575;51.366;12.350;2022-12-29T01:20:28;99471.53;;;9.05;75.01
66681;BME280;53575;51.366;12.350;2022-12-29T01:22:54;99477.59;;;9.04;74.87
66681;BME280;53575;51.366;12.350;2022-12-29T01:25:19;99472.31;;;9.10;74.91
66681;BME280;53575;51.366;12.350;2022-12-29T01:27:45;99478.50;;;9.01;75.24
66681;BME280;53575;51.366;12.350;2022-12-29T01:30:11;99468.81;;;9.11;74.86
66681;BME280;53575;51.366;12.350;2022-12-29T01:32:36;99470.56;;;9.12;75.31
66681;BME280;53575;51.366;12.350;2022-12-29T01:35:02;99461.94;;;9.06;75.37
66681;BME280;53575;51.366;12.350;2022-12-29T01:37:27;99465.44;;;9.03;75.80
66681;BME280;53575;51.366;12.350;2022-12-29T01:39:53;99461.84;;;9.12;75.82
66681;BME280;53575;51.366;12.350;2022-12-29T01:42:23;99466.16;;;9.14;75.66
66681;BME280;53575;51.366;12.350;2022-12-29T01:44:57;99467.88;;;9.17;75.83
66681;BME280;53575;51.366;12.350;2022-12-29T01:47:30;99456.69;;;9.07;76.35
66681;BME280;53575;51.366;12.350;2022-12-29T01:49:58;99454.91;;;9.11;76.39
66681;BME280;53575;51.366;12.350;2022-12-29T01:52:29;99457.56;;;9.09;76.67
66681;BME280;53575;51.366;12.350;2022-12-29T01:54:55;99454.84;;;9.15;76.73
66681;BME280;53575;51.366;12.350;2022-12-29T01:57:30;99456.63;;;9.13;76.69
66681;BME280;53575;51.366;12.350;2022-12-29T02:00:09;99453.91;;;9.19;76.76
66681;BME280;53575;51.366;12.350;2022-12-29T02:02:35;99448.69;;;9.19;76.85
66681;BME280;53575;51.366;12.350;2022-12-29T02:05:07;99458.34;;;9.16;77.18
66681;BME280;53575;51.366;12.350;2022-12-29T02:07:34;99452.13;;;9.23;76.94
66681;BME280;53575;51.366;12.350;2022-12-29T02:10:00;99456.44;;;9.25;77.31
66681;BME280;53575;51.366;12.350;2022-12-29T02:12:27;99457.22;;;9.31;76.89
66681;BME280;53575;51.366;12.350;2022-12-29T02:14:56;99468.50;;;9.33;77.06
66681;BME280;53575;51.366;12.350;2022-12-29T02:20:27;99463.22;;;9.39;76.85
66681;BME280;53575;51.366;12.350;2022-12-29T02:31:51;99445.63;;;9.50;77.06
66681;BME280;53575;51.366;12.350;2022-12-29T02:42:33;99431.66;;;9.56;77.13
66681;BME280;53575;51.366;12.350;2022-12-29T02:45:11;99417.72;;;9.58;77.50
66681;BME280;53575;51.366;12.350;2022-12-29T02:47:53;99427.25;;;9.58;77.40
66681;BME280;53575;51.366;12.350;2022-12-29T02:53:07;99406.50;;;9.51;77.68
66681;BME280;53575;51.366;12.350;2022-12-29T02:55:34;99396.91;;;9.53;77.68
66681;BME280;53575;51.366;12.350;2022-12-29T03:00:39;99388.25;;;9.51;77.96
66681;BME280;53575;51.366;12.350;2022-12-29T03:03:55;99379.66;;;9.45;78.44
66681;BME280;53575;51.366;12.350;2022-12-29T03:09:29;99365.81;;;9.43;78.76
66681;BME280;53575;51.366;12.350;2022-12-29T03:12:29;99371.88;;;9.42;78.86
66681;BME280;53575;51.366;12.350;2022-12-29T03:15:22;99365.84;;;9.38;79.21
66681;BME280;53575;51.366;12.350;2022-12-29T03:18:21;99365.81;;;9.43;79.03
66681;BME280;53575;51.366;12.350;2022-12-29T03:20:59;99367.53;;;9.42;79.07
66681;BME280;53575;51.366;12.350;2022-12-29T03:23:27;99373.69;;;9.40;79.36
66681;BME280;53575;51.366;12.350;2022-12-29T03:25:56;99376.16;;;9.47;79.10
66681;BME280;53575;51.366;12.350;2022-12-29T03:28:31;99383.84;;;9.53;78.50
66681;BME280;53575;51.366;12.350;2022-12-29T03:31:00;99385.59;;;9.55;78.67
66681;BME280;53575;51.366;12.350;2022-12-29T03:33:28;99380.25;;;9.61;78.46
66681;BME280;53575;51.366;12.350;2022-12-29T03:35:56;99375.00;;;9.64;78.20
66681;BME280;53575;51.366;12.350;2022-12-29T03:38:29;99387.16;;;9.65;78.23
66681;BME280;53575;51.366;12.350;2022-12-29T03:40:58;99403.72;;;9.62;78.61
66681;BME280;53575;51.366;12.350;2022-12-29T03:43:26;99401.03;;;9.65;78.41
66681;BME280;53575;51.366;12.350;2022-12-29T03:45:52;99404.59;;;9.61;78.45
66681;BME280;53575;51.366;12.350;2022-12-29T03:48:17;99406.31;;;9.64;78.16
66681;BME280;53575;51.366;12.350;2022-12-29T03:50:43;99400.94;;;9.73;78.13
66681;BME280;53575;51.366;12.350;2022-12-29T03:53:08;99413.94;;;9.74;78.13
66681;BME280;53575;51.366;12.350;2022-12-29T03:55:33;99421.78;;;9.74;77.75
66681;BME280;53575;51.366;12.350;2022-12-29T03:57:59;99419.09;;;9.79;77.72
66681;BME280;53575;51.366;12.350;2022-12-29T04:00:24;99417.38;;;9.76;77.85
66681;BME280;53575;51.366;12.350;2022-12-29T04:02:50;99428.69;;;9.77;77.97
66681;BME280;53575;51.366;12.350;2022-12-29T04:05:15;99428.53;;;9.86;77.60
66681;BME280;53575;51.366;12.350;2022-12-29T04:07:40;99423.44;;;9.79;77.70
66681;BME280;53575;51.366;12.350;2022-12-29T04:10:06;99429.56;;;9.77;78.02
66681;BME280;53575;51.366;12.350;2022-12-29T04:12:32;99434.72;;;9.81;78.01
66681;BME280;53575;51.366;12.350;2022-12-29T04:14:57;99434.84;;;9.73;78.28
66681;BME280;53575;51.366;12.350;2022-12-29T04:17:22;99436.53;;;9.77;78.38
66681;BME280;53575;51.366;12.350;2022-12-29T04:19:48;99429.59;;;9.74;78.17
66681;BME280;53575;51.366;12.350;2022-12-29T04:22:13;99426.91;;;9.81;78.19
66681;BME280;53575;51.366;12.350;2022-12-29T04:24:39;99421.81;;;9.71;78.54
66681;BME280;53575;51.366;12.350;2022-12-29T04:27:04;99415.69;;;9.74;78.70
66681;BME280;53575;51.366;12.350;2022-12-29T04:29:30;99413.19;;;9.69;79.03
66681;BME280;53575;51.366;12.350;2022-12-29T04:31:55;99407.84;;;9.75;78.99
66681;BME280;53575;51.366;12.350;2022-12-29T04:34:20;99404.38;;;9.75;78.87
66681;BME280;53575;51.366;12.350;2022-12-29T04:36:46;99408.69;;;9.77;79.12
66681;BME280;53575;51.366;12.350;2022-12-29T04:39:11;99400.91;;;9.74;79.45
66681;BME280;53575;51.366;12.350;2022-12-29T04:41:37;99401.75;;;9.75;79.45
66681;BME280;53575;51.366;12.350;2022-12-29T04:44:02;99387.75;;;9.81;79.65
66681;BME280;53575;51.366;12.350;2022-12-29T04:46:28;99390.38;;;9.81;79.72
66681;BME280;53575;51.366;12.350;2022-12-29T04:48:53;99388.63;;;9.80;79.91
66681;BME280;53575;51.366;12.350;2022-12-29T04:51:19;99392.03;;;9.85;80.28
66681;BME280;53575;51.366;12.350;2022-12-29T04:53:44;99385.91;;;9.86;80.06
66681;BME280;53575;51.366;12.350;2022-12-29T04:56:10;99389.44;;;9.85;80.34
66681;BME280;53575;51.366;12.350;2022-12-29T04:58:36;99385.03;;;9.87;80.18
66681;BME280;53575;51.366;12.350;2022-12-29T05:01:02;99391.19;;;9.83;80.70
66681;BME280;53575;51.366;12.350;2022-12-29T05:03:27;99368.69;;;9.77;81.20
66681;BME280;53575;51.366;12.350;2022-12-29T05:05:54;99366.94;;;9.76;81.58
66681;BME280;53575;51.366;12.350;2022-12-29T05:08:20;99367.03;;;9.71;81.89
66681;BME280;53575;51.366;12.350;2022-12-29T05:10:45;99364.50;;;9.67;82.41
66681;BME280;53575;51.366;12.350;2022-12-29T05:13:11;99366.22;;;9.68;82.84
66681;BME280;53575;51.366;12.350;2022-12-29T05:15:36;99362.91;;;9.60;83.07
66681;BME280;53575;51.366;12.350;2022-12-29T05:18:02;99363.94;;;9.51;83.71
66681;BME280;53575;51.366;12.350;2022-12-29T05:20:27;99370.09;;;9.47;84.16
66681;BME280;53575;51.366;12.350;2022-12-29T05:22:53;99368.59;;;9.31;84.91
66681;BME280;53575;51.366;12.350;2022-12-29T05:25:18;99368.59;;;9.31;85.41
66681;BME280;53575;51.366;12.350;2022-12-29T05:27:44;99362.31;;;9.44;84.98
66681;BME280;53575;51.366;12.350;2022-12-29T05:30:09;99362.41;;;9.38;85.45
66681;BME280;53575;51.366;12.350;2022-12-29T05:32:35;99365.97;;;9.31;85.96
66681;BME280;53575;51.366;12.350;2022-12-29T05:35:01;99369.34;;;9.39;85.85
66681;BME280;53575;51.366;12.350;2022-12-29T05:37:26;99363.50;;;9.24;86.41
66681;BME280;53575;51.366;12.350;2022-12-29T05:39:51;99359.94;;;9.28;86.50
66681;BME280;53575;51.366;12.350;2022-12-29T05:42:17;99360.84;;;9.26;86.60
66681;BME280;53575;51.366;12.350;2022-12-29T05:44:42;99365.22;;;9.25;87.09
66681;BME280;53575;51.366;12.350;2022-12-29T05:47:08;99353.88;;;9.26;86.91
66681;BME280;53575;51.366;12.350;2022-12-29T05:49:33;99353.06;;;9.24;87.24
66681;BME280;53575;51.366;12.350;2022-12-29T05:51:59;99353.16;;;9.20;87.24
66681;BME280;53575;51.366;12.350;2022-12-29T05:54:24;99351.34;;;9.22;87.28
66681;BME280;53575;51.366;12.350;2022-12-29T05:56:50;99351.28;;;9.26;87.15
66681;BME280;53575;51.366;12.350;2022-12-29T05:59:15;99354.03;;;9.17;87.49
66681;BME280;53575;51.366;12.350;2022-12-29T06:01:40;99347.94;;;9.20;87.33
66681;BME280;53575;51.366;12.350;2022-12-29T06:04:06;99341.75;;;9.25;87.51
66681;BME280;53575;51.366;12.350;2022-12-29T06:06:31;99343.47;;;9.26;87.16
66681;BME280;53575;51.366;12.350;2022-12-29T06:08:57;99345.94;;;9.34;87.36
66681;BME280;53575;51.366;12.350;2022-12-29T06:11:22;99347.69;;;9.35;87.20
66681;BME280;53575;51.366;12.350;2022-12-29T06:13:47;99345.75;;;9.46;86.82
66681;BME280;53575;51.366;12.350;2022-12-29T06:16:13;99344.00;;;9.47;86.37
66681;BME280;53575;51.366;12.350;2022-12-29T06:18:38;99344.69;;;9.58;85.90
66681;BME280;53575;51.366;12.350;2022-12-29T06:21:04;99346.34;;;9.61;85.58
66681;BME280;53575;51.366;12.350;2022-12-29T06:23:30;99340.22;;;9.63;85.80
66681;BME280;53575;51.366;12.350;2022-12-29T06:25:56;99344.47;;;9.70;85.35
66681;BME280;53575;51.366;12.350;2022-12-29T06:28:23;99337.44;;;9.74;85.11
66681;BME280;53575;51.366;12.350;2022-12-29T06:30:48;99343.59;;;9.68;85.20
66681;BME280;53575;51.366;12.350;2022-12-29T06:33:14;99346.25;;;9.65;85.47
66681;BME280;53575;51.366;12.350;2022-12-29T06:35:41;99342.69;;;9.71;84.92
66681;BME280;53575;51.366;12.350;2022-12-29T06:38:07;99340.00;;;9.77;84.70
66681;BME280;53575;51.366;12.350;2022-12-29T06:40:32;99349.53;;;9.76;84.69
66681;BME280;53575;51.366;12.350;2022-12-29T06:42:58;99347.72;;;9.82;84.54
66681;BME280;53575;51.366;12.350;2022-12-29T06:45:24;99340.91;;;9.74;84.67
66681;BME280;53575;51.366;12.350;2022-12-29T06:47:49;99343.41;;;9.79;84.72
66681;BME280;53575;51.366;12.350;2022-12-29T06:50:15;99344.13;;;9.87;84.38
66681;BME280;53575;51.366;12.350;2022-12-29T06:52:40;99346.91;;;9.78;84.46
66681;BME280;53575;51.366;12.350;2022-12-29T06:55:06;99340.84;;;9.77;84.44
66681;BME280;53575;51.366;12.350;2022-12-29T06:57:32;99339.19;;;9.73;84.99
66681;BME280;53575;51.366;12.350;2022-12-29T06:59:57;99337.63;;;9.63;85.48
66681;BME280;53575;51.366;12.350;2022-12-29T07:02:23;99331.81;;;9.47;86.47
66681;BME280;53575;51.366;12.350;2022-12-29T07:04:51;99329.22;;;9.46;86.74
66681;BME280;53575;51.366;12.350;2022-12-29T07:07:17;99334.59;;;9.37;87.18
66681;BME280;53575;51.366;12.350;2022-12-29T07:09:42;99339.91;;;9.32;87.72
66681;BME280;53575;51.366;12.350;2022-12-29T07:12:08;99326.06;;;9.28;87.96
66681;BME280;53575;51.366;12.350;2022-12-29T07:14:33;99339.06;;;9.30;88.23
66681;BME280;53575;51.366;12.350;2022-12-29T07:16:59;99337.56;;;9.15;88.85
66681;BME280;53575;51.366;12.350;2022-12-29T07:19:24;99336.81;;;9.07;89.71
66681;BME280;53575;51.366;12.350;2022-12-29T07:21:50;99340.25;;;9.12;90.02
66681;BME280;53575;51.366;12.350;2022-12-29T07:24:15;99347.00;;;9.24;89.45
66681;BME280;53575;51.366;12.350;2022-12-29T07:26:40;99342.47;;;9.35;89.17
66681;BME280;53575;51.366;12.350;2022-12-29T07:29:06;99344.00;;;9.45;88.63
66681;BME280;53575;51.366;12.350;2022-12-29T07:31:32;99344.81;;;9.49;88.54
66681;BME280;53575;51.366;12.350;2022-12-29T07:33:57;99339.69;;;9.44;88.79
66681;BME280;53575;51.366;12.350;2022-12-29T07:36:23;99338.84;;;9.44;88.85
66681;BME280;53575;51.366;12.350;2022-12-29T07:38:48;99345.91;;;9.37;89.05
66681;BME280;53575;51.366;12.350;2022-12-29T07:41:14;99349.19;;;9.48;89.18
66681;BME280;53575;51.366;12.350;2022-12-29T07:43:39;99335.97;;;9.59;88.55
66681;BME280;53575;51.366;12.350;2022-12-29T07:46:04;99352.44;;;9.61;88.29
66681;BME280;53575;51.366;12.350;2022-12-29T07:48:30;99351.47;;;9.65;88.27
66681;BME280;53575;51.366;12.350;2022-12-29T07:50:55;99346.13;;;9.74;88.19
66681;BME280;53575;51.366;12.350;2022-12-29T07:53:21;99350.63;;;9.65;88.64
66681;BME280;53575;51.366;12.350;2022-12-29T07:55:46;99351.47;;;9.65;88.73
66681;BME280;53575;51.366;12.350;2022-12-29T07:58:12;99347.28;;;9.58;89.35
66681;BME280;53575;51.366;12.350;2022-12-29T08:00:38;99350.47;;;9.74;88.69
66681;BME280;53575;51.366;12.350;2022-12-29T08:03:04;99361.00;;;9.69;89.20
66681;BME280;53575;51.366;12.350;2022-12-29T08:05:33;99357.47;;;9.72;89.08
66681;BME280;53575;51.366;12.350;2022-12-29T08:07:59;99361.81;;;9.71;89.21
66681;BME280;53575;51.366;12.350;2022-12-29T08:10:25;99361.72;;;9.77;88.91
66681;BME280;53575;51.366;12.350;2022-12-29T08:12:50;99359.91;;;9.81;88.44
66681;BME280;53575;51.366;12.350;2022-12-29T08:15:15;99350.06;;;9.95;88.21
66681;BME280;53575;51.366;12.350;2022-12-29T08:17:41;99347.28;;;10.05;87.81
66681;BME280;53575;51.366;12.350;2022-12-29T08:20:07;99348.09;;;10.08;87.09
66681;BME280;53575;51.366;12.350;2022-12-29T08:22:33;99347.25;;;10.06;87.31
66681;BME280;53575;51.366;12.350;2022-12-29T08:24:58;99343.81;;;10.04;87.17
66681;BME280;53575;51.366;12.350;2022-12-29T08:27:23;99344.59;;;10.09;87.27
66681;BME280;53575;51.366;12.350;2022-12-29T08:29:49;99343.69;;;10.10;87.15
66681;BME280;53575;51.366;12.350;2022-12-29T08:32:15;99348.81;;;10.15;86.61
66681;BME280;53575;51.366;12.350;2022-12-29T08:34:41;99358.28;;;10.20;86.36
66681;BME280;53575;51.366;12.350;2022-12-29T08:37:06;99346.00;;;10.27;86.13
66681;BME280;53575;51.366;12.350;2022-12-29T08:39:31;99351.13;;;10.32;85.67
66681;BME280;53575;51.366;12.350;2022-12-29T08:41:57;99350.28;;;10.31;85.73
66681;BME280;53575;51.366;12.350;2022-12-29T08:44:22;99342.34;;;10.36;85.31
66681;BME280;53575;51.366;12.350;2022-12-29T08:46:48;99344.69;;;10.49;84.95
66681;BME280;53575;51.366;12.350;2022-12-29T08:49:14;99336.84;;;10.49;84.80
66681;BME280;53575;51.366;12.350;2022-12-29T08:51:39;99335.88;;;10.52;84.66
66681;BME280;53575;51.366;12.350;2022-12-29T08:54:05;99346.22;;;10.58;84.27
66681;BME280;53575;51.366;12.350;2022-12-29T08:56:30;99356.41;;;10.70;83.64
66681;BME280;53575;51.366;12.350;2022-12-29T08:58:56;99345.03;;;10.71;83.68
66681;BME280;53575;51.366;12.350;2022-12-29T09:01:21;99342.41;;;10.73;83.26
66681;BME280;53575;51.366;12.350;2022-12-29T09:03:47;99342.31;;;10.78;82.90
66681;BME280;53575;51.366;12.350;2022-12-29T09:06:14;99337.06;;;10.78;83.19
66681;BME280;53575;51.366;12.350;2022-12-29T09:08:39;99338.00;;;10.75;83.29
66681;BME280;53575;51.366;12.350;2022-12-29T09:13:36;99346.56;;;10.82;83.04
66681;BME280;53575;51.366;12.350;2022-12-29T09:16:02;99351.72;;;10.85;82.82
66681;BME280;53575;51.366;12.350;2022-12-29T09:18:29;99344.00;;;10.80;83.14
66681;BME280;53575;51.366;12.350;2022-12-29T09:20:59;99356.00;;;10.87;83.41
66681;BME280;53575;51.366;12.350;2022-12-29T09:23:25;99362.50;;;11.08;82.23
66681;BME280;53575;51.366;12.350;2022-12-29T09:25:50;99357.84;;;11.21;81.50
66681;BME280;53575;51.366;12.350;2022-12-29T09:28:16;99357.59;;;11.32;81.00
66681;BME280;53575;51.366;12.350;2022-12-29T09:30:42;99361.91;;;11.33;80.85
66681;BME280;53575;51.366;12.350;2022-12-29T09:33:07;99364.38;;;11.39;80.52
66681;BME280;53575;51.366;12.350;2022-12-29T09:35:33;99357.25;;;11.45;80.21
66681;BME280;53575;51.366;12.350;2022-12-29T09:37:58;99354.44;;;11.53;79.62
66681;BME280;53575;51.366;12.350;2022-12-29T09:40:31;99334.25;;;11.58;79.03
66681;BME280;53575;51.366;12.350;2022-12-29T09:48:36;99334.53;;;11.80;78.05
66681;BME280;53575;51.366;12.350;2022-12-29T09:51:10;99319.63;;;11.82;77.53
66681;BME280;53575;51.366;12.350;2022-12-29T09:53:41;99317.75;;;11.89;77.14
66681;BME280;53575;51.366;12.350;2022-12-29T09:56:17;99318.63;;;11.89;77.41
66681;BME280;53575;51.366;12.350;2022-12-29T09:59:00;99301.84;;;11.97;76.74
66681;BME280;53575;51.366;12.350;2022-12-29T10:04:14;99302.19;;;12.15;75.75
66681;BME280;53575;51.366;12.350;2022-12-29T10:07:00;99301.03;;;12.26;75.16
66681;BME280;53575;51.366;12.350;2022-12-29T10:09:59;99311.56;;;12.23;75.63
66681;BME280;53575;51.366;12.350;2022-12-29T10:12:55;99316.13;;;12.16;75.60
66681;BME280;53575;51.366;12.350;2022-12-29T10:15:44;99314.78;;;12.01;76.02
66681;BME280;53575;51.366;12.350;2022-12-29T10:23:45;99291.53;;;11.90;76.25
66681;BME280;53575;51.366;12.350;2022-12-29T10:26:39;99286.56;;;11.80;76.70
66681;BME280;53575;51.366;12.350;2022-12-29T10:31:37;99291.31;;;11.65;76.85
66681;BME280;53575;51.366;12.350;2022-12-29T10:34:19;99295.84;;;11.59;76.94
66681;BME280;53575;51.366;12.350;2022-12-29T10:37:00;99297.41;;;11.66;77.08
66681;BME280;53575;51.366;12.350;2022-12-29T10:39:38;99303.13;;;11.80;76.82
66681;BME280;53575;51.366;12.350;2022-12-29T10:42:26;99308.00;;;11.94;75.96
66681;BME280;53575;51.366;12.350;2022-12-29T10:45:19;99300.47;;;12.14;75.00
66681;BME280;53575;51.366;12.350;2022-12-29T10:48:19;99306.19;;;12.27;74.60
66681;BME280;53575;51.366;12.350;2022-12-29T10:51:10;99307.66;;;12.37;74.51
